地図

経路データ

SID SEASON NUMBER BASIN SUBBASIN NAME ISO_TIME NATURE LAT LON WMO_WIND WMO_PRES WMO_AGENCY TRACK_TYPE DIST2LAND LANDFALL IFLAG USA_AGENCY USA_ATCF_ID USA_LAT USA_LON USA_RECORD USA_STATUS USA_WIND USA_PRES USA_SSHS USA_R34_NE USA_R34_SE USA_R34_SW USA_R34_NW USA_R50_NE USA_R50_SE USA_R50_SW USA_R50_NW USA_R64_NE USA_R64_SE USA_R64_SW USA_R64_NW USA_POCI USA_ROCI USA_RMW USA_EYE TOKYO_LAT TOKYO_LON TOKYO_GRADE TOKYO_WIND TOKYO_PRES TOKYO_R50_DIR TOKYO_R50_LONG TOKYO_R50_SHORT TOKYO_R30_DIR TOKYO_R30_LONG TOKYO_R30_SHORT TOKYO_LAND CMA_LAT CMA_LON CMA_CAT CMA_WIND CMA_PRES HKO_LAT HKO_LON HKO_CAT HKO_WIND HKO_PRES NEWDELHI_LAT NEWDELHI_LON NEWDELHI_GRADE NEWDELHI_WIND NEWDELHI_PRES NEWDELHI_CI NEWDELHI_DP NEWDELHI_POCI REUNION_LAT REUNION_LON REUNION_TYPE REUNION_WIND REUNION_PRES REUNION_TNUM REUNION_CI REUNION_RMW REUNION_R34_NE REUNION_R34_SE REUNION_R34_SW REUNION_R34_NW REUNION_R50_NE REUNION_R50_SE REUNION_R50_SW REUNION_R50_NW REUNION_R64_NE REUNION_R64_SE REUNION_R64_SW REUNION_R64_NW BOM_LAT BOM_LON BOM_TYPE BOM_WIND BOM_PRES BOM_TNUM BOM_CI BOM_RMW BOM_R34_NE BOM_R34_SE BOM_R34_SW BOM_R34_NW BOM_R50_NE BOM_R50_SE BOM_R50_SW BOM_R50_NW BOM_R64_NE BOM_R64_SE BOM_R64_SW BOM_R64_NW BOM_ROCI BOM_POCI BOM_EYE BOM_POS_METHOD BOM_PRES_METHOD NADI_LAT NADI_LON NADI_CAT NADI_WIND NADI_PRES WELLINGTON_LAT WELLINGTON_LON WELLINGTON_WIND WELLINGTON_PRES DS824_LAT DS824_LON DS824_STAGE DS824_WIND DS824_PRES TD9636_LAT TD9636_LON TD9636_STAGE TD9636_WIND TD9636_PRES TD9635_LAT TD9635_LON TD9635_WIND TD9635_PRES TD9635_ROCI NEUMANN_LAT NEUMANN_LON NEUMANN_CLASS NEUMANN_WIND NEUMANN_PRES MLC_LAT MLC_LON MLC_CLASS MLC_WIND MLC_PRES USA_GUST BOM_GUST BOM_GUST_PER REUNION_GUST REUNION_GUST_PER USA_SEAHGT USA_SEARAD_NE USA_SEARAD_SE USA_SEARAD_SW USA_SEARAD_NW STORM_SPEED STORM_DIR
1933236N21297 1933 44 NA NA NOT_NAMED 1933-08-23 12:00:00 TS 21.2000 -63.5000 25 hurdat_atl main 382 370 O_____________ hurdat_atl AL091933 21.2000 -63.5000 TD 25 -1 4 268
1933236N21297 1933 44 NA NA NOT_NAMED 1933-08-23 15:00:00 TS 21.1926 -63.7025 main 370 360 P_____________ AL091933 21.1926 -63.7025 TD 25 -1 4 270
1933236N21297 1933 44 NA NA NOT_NAMED 1933-08-23 18:00:00 TS 21.2000 -63.9000 25 hurdat_atl main 360 350 O_____________ hurdat_atl AL091933 21.2000 -63.9000 TD 25 -1 4 277
1933236N21297 1933 44 NA NA NOT_NAMED 1933-08-23 21:00:00 TS 21.2349 -64.0925 main 350 350 P_____________ AL091933 21.2349 -64.0925 TD 25 -1 4 285
1933236N21297 1933 44 NA NA NOT_NAMED 1933-08-24 00:00:00 TS 21.3000 -64.3000 25 hurdat_atl main 351 344 O_____________ hurdat_atl AL091933 21.3000 -64.3000 TD 25 -1 4 288
1933236N21297 1933 44 NA NA NOT_NAMED 1933-08-24 03:00:00 TS 21.3700 -64.5426 main 354 348 P_____________ AL091933 21.3700 -64.5426 TD 27 -1 5 293
1933236N21297 1933 44 NA NA NOT_NAMED 1933-08-24 06:00:00 TS 21.5000 -64.8000 30 hurdat_atl main 356 354 O_____________ hurdat_atl AL091933 21.5000 -64.8000 TD 30 -1 6 306
1933236N21297 1933 44 NA NA NOT_NAMED 1933-08-24 09:00:00 TS 21.7124 -65.0426 main 374 372 P_____________ AL091933 21.7124 -65.0426 TD 30 -1 7 317
1933236N21297 1933 44 NA NA NOT_NAMED 1933-08-24 12:00:00 TS 22.0000 -65.3000 30 hurdat_atl main 403 403 O_____________ hurdat_atl AL091933 22.0000 -65.3000 TD 30 -1 8 321
1933236N21297 1933 44 NA NA NOT_NAMED 1933-08-24 15:00:00 TS 22.3350 -65.5925 main 436 436 P_____________ AL091933 22.3350 -65.5925 TD 30 -1 9 322
1933236N21297 1933 44 NA NA NOT_NAMED 1933-08-24 18:00:00 TS 22.7000 -65.9000 30 hurdat_atl main 480 480 O_____________ hurdat_atl AL091933 22.7000 -65.9000 TD 30 -1 9 322
1933236N21297 1933 44 NA NA NOT_NAMED 1933-08-24 21:00:00 TS 23.0499 -66.2002 main 514 514 P_____________ AL091933 23.0499 -66.2002 TD 30 -1 9 322
1933236N21297 1933 44 NA NA NOT_NAMED 1933-08-25 00:00:00 TS 23.4000 -66.5000 30 hurdat_atl main 542 542 O_____________ hurdat_atl AL091933 23.4000 -66.5000 TD 30 -1 9 322
1933236N21297 1933 44 NA NA NOT_NAMED 1933-08-25 03:00:00 TS 23.7499 -66.8002 main 555 555 P_____________ AL091933 23.7499 -66.8002 TD 30 -1 9 322
1933236N21297 1933 44 NA NA NOT_NAMED 1933-08-25 06:00:00 TS 24.1000 -67.1000 30 hurdat_atl main 582 582 O_____________ hurdat_atl AL091933 24.1000 -67.1000 TD 30 -1 9 321
1933236N21297 1933 44 NA NA NOT_NAMED 1933-08-25 09:00:00 TS 24.4500 -67.4225 main 609 605 P_____________ AL091933 24.4500 -67.4225 TD 32 -1 9 322
1933236N21297 1933 44 NA NA NOT_NAMED 1933-08-25 12:00:00 TS 24.8000 -67.7000 35 hurdat_atl main 627 627 O_____________ hurdat_atl AL091933 24.8000 -67.7000 TS 35 0 8 330
1933236N21297 1933 44 NA NA NOT_NAMED 1933-08-25 15:00:00 TS 25.1499 -67.8728 main 651 651 P_____________ AL091933 25.1499 -67.8728 TS 35 0 8 339
1933236N21297 1933 44 NA NA NOT_NAMED 1933-08-25 18:00:00 TS 25.5000 -68.0000 35 hurdat_atl main 690 690 O_____________ hurdat_atl AL091933 25.5000 -68.0000 TS 35 0 7 340
1933236N21297 1933 44 NA NA NOT_NAMED 1933-08-25 21:00:00 TS 25.8500 -68.1501 main 709 709 P_____________ AL091933 25.8500 -68.1501 TS 35 0 8 339
1933236N21297 1933 44 NA NA NOT_NAMED 1933-08-26 00:00:00 TS 26.2000 -68.3000 35 hurdat_atl main 735 735 O_____________ hurdat_atl AL091933 26.2000 -68.3000 TS 35 0 8 339
1933236N21297 1933 44 NA NA NOT_NAMED 1933-08-26 03:00:00 TS 26.5575 -68.4575 main 756 756 P_____________ AL091933 26.5575 -68.4575 TS 35 0 8 339
1933236N21297 1933 44 NA NA NOT_NAMED 1933-08-26 06:00:00 TS 26.9000 -68.6000 35 hurdat_atl main 777 777 O_____________ hurdat_atl AL091933 26.9000 -68.6000 TS 35 0 7 341
1933236N21297 1933 44 NA NA NOT_NAMED 1933-08-26 09:00:00 TS 27.2000 -68.7002 main 799 799 P_____________ AL091933 27.2000 -68.7002 TS 35 0 6 344
1933236N21297 1933 44 NA NA NOT_NAMED 1933-08-26 12:00:00 TS 27.5000 -68.8000 35 hurdat_atl main 822 822 O_____________ hurdat_atl AL091933 27.5000 -68.8000 TS 35 0 7 341
1933236N21297 1933 44 NA NA NOT_NAMED 1933-08-26 15:00:00 TS 27.8500 -68.9499 main 855 850 P_____________ AL091933 27.8500 -68.9499 TS 35 0 8 339
1933236N21297 1933 44 NA NA NOT_NAMED 1933-08-26 18:00:00 TS 28.2000 -69.1000 35 hurdat_atl main 875 875 O_____________ hurdat_atl AL091933 28.2000 -69.1000 TS 35 0 7 341
1933236N21297 1933 44 NA NA NOT_NAMED 1933-08-26 21:00:00 TS 28.5150 -69.2076 main 900 900 P_____________ AL091933 28.5150 -69.2076 TS 35 0 6 344
1933236N21297 1933 44 NA NA NOT_NAMED 1933-08-27 00:00:00 TS 28.8000 -69.3000 35 hurdat_atl main 927 922 O_____________ hurdat_atl AL091933 28.8000 -69.3000 TS 35 0 6 343
1933236N21297 1933 44 NA NA NOT_NAMED 1933-08-27 03:00:00 TS 29.0425 -69.3927 main 922 892 P_____________ AL091933 29.0425 -69.3927 TS 35 0 5 340
1933236N21297 1933 44 NA NA NOT_NAMED 1933-08-27 06:00:00 TS 29.3000 -69.5000 35 hurdat_atl main 892 855 O_____________ hurdat_atl AL091933 29.3000 -69.5000 TS 35 0 6 337
1933236N21297 1933 44 NA NA NOT_NAMED 1933-08-27 09:00:00 TS 29.6351 -69.6870 main 855 817 P_____________ AL091933 29.6351 -69.6870 TS 35 0 7 340
1933236N21297 1933 44 NA NA NOT_NAMED 1933-08-27 12:00:00 TS 30.0000 -69.8000 35 hurdat_atl main 817 794 O_____________ hurdat_atl AL091933 30.0000 -69.8000 TS 35 0 7 358
1933236N21297 1933 44 NA NA NOT_NAMED 1933-08-27 15:00:00 TS 30.3499 -69.7250 main 802 787 P_____________ AL091933 30.3499 -69.7250 TS 35 0 7 20
1933236N21297 1933 44 NA NA NOT_NAMED 1933-08-27 18:00:00 TS 30.7000 -69.5000 35 hurdat_atl main 788 781 O_____________ hurdat_atl AL091933 30.7000 -69.5000 TS 35 0 8 34
1933236N21297 1933 44 NA NA NOT_NAMED 1933-08-27 21:00:00 TS 31.0426 -69.1800 main 791 783 P_____________ AL091933 31.0426 -69.1800 TS 37 0 9 41
1933236N21297 1933 44 NA NA NOT_NAMED 1933-08-28 00:00:00 TS 31.4000 -68.8000 40 hurdat_atl main 789 783 O_____________ hurdat_atl AL091933 31.4000 -68.8000 TS 40 0 10 40
1933236N21297 1933 44 NA NA NOT_NAMED 1933-08-28 03:00:00 TS 31.7773 -68.4644 main 784 784 P_____________ AL091933 31.7773 -68.4644 TS 42 0 10 37
1933236N21297 1933 44 NA NA NOT_NAMED 1933-08-28 06:00:00 TS 32.2000 -68.1000 45 hurdat_atl main 789 786 O_____________ hurdat_atl AL091933 32.2000 -68.1000 TS 45 0 11 36
1933236N21297 1933 44 NA NA NOT_NAMED 1933-08-28 09:00:00 TS 32.6695 -67.7014 main 794 794 P_____________ AL091933 32.6695 -67.7014 TS 47 0 13 37
1933236N21297 1933 44 NA NA NOT_NAMED 1933-08-28 12:00:00 TS 33.2000 -67.2000 50 hurdat_atl main 812 812 O_____________ hurdat_atl AL091933 33.2000 -67.2000 TS 50 0 15 41
1933236N21297 1933 44 NA NA NOT_NAMED 1933-08-28 15:00:00 TS 33.7776 -66.5447 main 849 849 P_____________ AL091933 33.7776 -66.5447 TS 52 0 17 44
1933236N21297 1933 44 NA NA NOT_NAMED 1933-08-28 18:00:00 TS 34.4000 -65.8000 55 hurdat_atl main 891 858 O_____________ hurdat_atl AL091933 34.4000 -65.8000 TS 55 0 18 44
1933236N21297 1933 44 NA NA NOT_NAMED 1933-08-28 21:00:00 TS 35.0348 -65.0492 main 863 829 P_____________ AL091933 35.0348 -65.0492 TS 55 0 18 43
1933236N21297 1933 44 NA NA NOT_NAMED 1933-08-29 00:00:00 TS 35.7000 -64.3000 55 hurdat_atl main 829 803 O_____________ hurdat_atl AL091933 35.7000 -64.3000 TS 55 0 18 41
1933236N21297 1933 44 NA NA NOT_NAMED 1933-08-29 03:00:00 TS 36.3918 -63.5985 main 803 740 P_____________ AL091933 36.3918 -63.5985 TS 52 0 18 39
1933236N21297 1933 44 NA NA NOT_NAMED 1933-08-29 06:00:00 TS 37.1000 -62.9000 50 hurdat_atl main 740 692 O_____________ hurdat_atl AL091933 37.1000 -62.9000 TS 50 0 18 39
1933236N21297 1933 44 NA NA NOT_NAMED 1933-08-29 09:00:00 TS 37.7766 -62.1845 main 685 644 P_____________ AL091933 37.7766 -62.1845 TS 50 0 18 40
1933236N21297 1933 44 NA NA NOT_NAMED 1933-08-29 12:00:00 TS 38.5000 -61.4000 50 hurdat_atl main 644 608 O_____________ hurdat_atl AL091933 38.5000 -61.4000 TS 50 0 20 40
1933236N21297 1933 44 NA NA NOT_NAMED 1933-08-29 15:00:00 TS 39.3190 -60.5151 main 614 563 P_____________ AL091933 39.3190 -60.5151 TS 50 0 22 41
1933236N21297 1933 44 NA NA NOT_NAMED 1933-08-29 18:00:00 TS 40.2000 -59.5000 50 hurdat_atl main 567 512 O_____________ hurdat_atl AL091933 40.2000 -59.5000 TS 50 0 24 43
1933236N21297 1933 44 NA NA NOT_NAMED 1933-08-29 21:00:00 TS 41.0987 -58.3723 main 505 473 P_____________ AL091933 41.0987 -58.3723 TS 50 0 25 45
1933236N21297 1933 44 NA NA NOT_NAMED 1933-08-30 00:00:00 TS 42.0000 -57.1000 50 hurdat_atl main 478 444 O_____________ hurdat_atl AL091933 42.0000 -57.1000 TS 50 0 27 48
1933236N21297 1933 44 NA NA NOT_NAMED 1933-08-30 03:00:00 TS 42.8720 -55.6856 main 433 326 P_____________ AL091933 42.8720 -55.6856 TS 50 0 27 51
1933236N21297 1933 44 NA NA NOT_NAMED 1933-08-30 06:00:00 ET 43.7000 -54.2000 50 hurdat_atl main 325 235 O_____________ hurdat_atl AL091933 43.7000 -54.2000 EX 50 -4 27 53
1933236N21297 1933 44 NA NA NOT_NAMED 1933-08-30 09:00:00 ET 44.5091 -52.7196 main 236 207 P_____________ AL091933 44.5091 -52.7196 EX 47 -4 26 54
1933236N21297 1933 44 NA NA NOT_NAMED 1933-08-30 12:00:00 ET 45.2000 -51.3000 45 hurdat_atl main 213 213 O_____________ hurdat_atl AL091933 45.2000 -51.3000 EX 45 -4 22 58
1933236N21297 1933 44 NA NA NOT_NAMED 1933-08-30 15:00:00 ET 45.7075 -50.0151 main 260 260 P_____________ AL091933 45.7075 -50.0151 EX 42 -4 20 63
1933236N21297 1933 44 NA NA NOT_NAMED 1933-08-30 18:00:00 ET 46.1000 -48.8000 40 hurdat_atl main 327 327 O_____________ hurdat_atl AL091933 46.1000 -48.8000 EX 40 -4 19 66
1933236N21297 1933 44 NA NA NOT_NAMED 1933-08-30 21:00:00 ET 46.4786 -47.5484 main 400 400 P_____________ AL091933 46.4786 -47.5484 EX 37 -4 19 68
1933236N21297 1933 44 NA NA NOT_NAMED 1933-08-31 00:00:00 ET 46.8000 -46.3000 35 hurdat_atl main 480 480 O_____________ hurdat_atl AL091933 46.8000 -46.3000 EX 35 -4 18 71
1933236N21297 1933 44 NA NA NOT_NAMED 1933-08-31 03:00:00 ET 47.0629 -45.0699 main 564 564 P_____________ AL091933 47.0629 -45.0699 EX 35 -4 18 74
1933236N21297 1933 44 NA NA NOT_NAMED 1933-08-31 06:00:00 ET 47.3000 -43.8000 35 hurdat_atl main 659 659 O_____________ hurdat_atl AL091933 47.3000 -43.8000 EX 35 -4 18 75
1933236N21297 1933 44 NA NA NOT_NAMED 1933-08-31 09:00:00 ET 47.5255 -42.4489 main 762 762 P_____________ AL091933 47.5255 -42.4489 EX 35 -4 19 75
1933236N21297 1933 44 NA NA NOT_NAMED 1933-08-31 12:00:00 ET 47.8000 -41.0000 35 hurdat_atl main 864 864 O_____________ hurdat_atl AL091933 47.8000 -41.0000 EX 35 -4 21 72
1933236N21297 1933 44 NA NA NOT_NAMED 1933-08-31 15:00:00 ET 48.1750 -39.4398 main 982 982 P_____________ AL091933 48.1750 -39.4398 EX 35 -4 23 69
1933236N21297 1933 44 NA NA NOT_NAMED 1933-08-31 18:00:00 ET 48.6000 -37.8000 35 hurdat_atl main 1100 O_____________ hurdat_atl AL091933 48.6000 -37.8000 EX 35 -4 23 69

IBTrACS Databaseについて

本データベースは、米国NOAAが公開する1842年以降の世界の熱帯低気圧のベストトラックデータアーカイブInternational Best Track Archive for Climate Stewardship (IBTrACS)を、ウェブで閲覧しやすい形式に変換したものです。

最終更新日:2021-10-08